• Join FlightAware (Why Join?)
  • Login
  • US Flag 
04:12AM EDT


 

Airport Tracker/Info


-or-


 

Live Flight TrackerFlight Track Log ✈ A6-ENG ✈ 21-Apr-2013 ✈ OMDB / DXB - EDDF / FRA

Flight Track Log - Related Links

Times and Time Zones

All times are in EDT time to prevent confusion due to time zone crossing. See the A6-ENG flight status page for this flight to view local times or setup timezone preferences in your user account.

Time Position Orientation Groundspeed Altitude Reporting Facility
EDT Latitude Longitude Course Direction KTS MPH feet Rate Location/Type
06:52AM 25.2720 55.3370 303° West 190 219 1,300  Level FlightAware
06:53AM 25.2890 55.3070 302° West 216 249 2,200 1,440 Climbing FlightAware
06:53AM 25.2970 55.2880 295° West 240 276 2,400 1,380 Climbing FlightAware
06:53AM 25.3000 55.2720 282° West 255 293 2,900 2,100 Climbing FlightAware
06:54AM 25.3050 55.2420 280° West 269 310 3,800 2,460 Climbing FlightAware
06:56AM 25.4682 55.0744 317° Northwest  Level Estimated
06:57AM 25.5498 54.9903 317° Northwest  Level Estimated
06:58AM 25.6314 54.9061 317° Northwest  Level Estimated
06:59AM 25.7129 54.8218 317° Northwest  Level Estimated
06:59AM 25.4040 54.6940 317° Northwest 369 425 16,900  Level FlightAware
06:59AM 25.4190 54.6320 285° West 369 425 16,900  Level FlightAware
07:00AM 25.4340 54.5700 285° West 369 425 16,900  Level FlightAware
07:01AM 25.4490 54.5080 285° West 369 425 16,900  Level FlightAware
07:02AM 25.4680 54.4300 285° West 369 425 16,900  Level FlightAware
07:02AM 25.4790 54.3830 285° West 369 425 16,900 4,140 Level FlightAware
07:05AM 25.6740 54.1831 317° Northwest  Level Estimated
07:05AM 25.5750 53.9880 317° Northwest 419 482 29,400  Level FlightAware
07:05AM 25.5920 53.9230 286° West 425 489 31,000 3,000 Climbing FlightAware
07:06AM 25.6130 53.8340 285° West 397 457 33,200 1,980 Climbing FlightAware
07:07AM 25.6370 53.7360 285° West 390 449 34,000 480 Climbing FlightAware
07:07AM 25.6550 53.6600 285° West 389 448 34,000  Level FlightAware
07:08AM 25.6760 53.5720 285° West 389 448 34,000  Level FlightAware
07:09AM 25.6940 53.4960 285° West 388 447 34,000  Level FlightAware
07:10AM 25.7140 53.4100 284° West 388 447 34,000  Level FlightAware
07:10AM 25.7330 53.3320 285° West 387 445 34,000  Level FlightAware
07:11AM 25.7470 53.2550 281° West 385 443 34,000  Level FlightAware
07:12AM 25.7560 53.1680 277° West 384 442 34,000  Level FlightAware
07:12AM 25.7650 53.0890 277° West 385 443 34,000  Level FlightAware
07:13AM 25.7970 53.0060 293° West 392 451 34,000  Level FlightAware
07:14AM 25.8310 52.9360 298° West 393 452 34,000  Level FlightAware
07:14AM 25.8650 52.8660 298° West 393 452 34,000  Level FlightAware
07:15AM 25.9050 52.7830 298° West 391 450 34,000  Level FlightAware
07:16AM 25.9390 52.7110 298° West 392 451 34,000  Level FlightAware
07:17AM 25.9790 52.6280 298° West 390 449 34,000  Level FlightAware
07:17AM 26.0120 52.5580 298° West 389 448 34,000  Level FlightAware
07:18AM 26.0420 52.4970 299° West 389 448 34,000  Level FlightAware
07:19AM 26.0800 52.4160 298° West 389 448 34,000  Level FlightAware
07:19AM 26.1190 52.3350 298° West 390 449 34,000  Level FlightAware
07:20AM 26.1580 52.2510 297° West 391 450 34,000  Level FlightAware
07:21AM 26.1910 52.1820 298° West 391 450 34,000  Level FlightAware
07:21AM 26.2260 52.1090 298° West 391 450 34,000  Level FlightAware
07:22AM 26.2640 52.0290 298° West 391 450 34,000  Level FlightAware
07:23AM 26.3000 51.9530 298° West 390 449 34,000  Level FlightAware
07:24AM 26.3360 51.8760 298° West 391 450 34,000  Level FlightAware
07:24AM 26.3710 51.8010 298° West 390 449 34,000  Level FlightAware
07:25AM 26.4040 51.7310 298° West 390 449 34,000  Level FlightAware
07:26AM 26.4410 51.6500 297° West 389 448 34,000  Level FlightAware
07:26AM 26.4740 51.5790 297° West 390 449 34,000  Level FlightAware
07:27AM 26.5060 51.5110 298° West 389 448 34,000  Level FlightAware
07:28AM 26.5440 51.4280 297° West 389 448 34,000  Level FlightAware
07:28AM 26.5820 51.3470 298° West 389 448 34,000  Level FlightAware
07:29AM 26.6110 51.2840 297° West 385 443 34,000  Level FlightAware
07:30AM 26.6380 51.2160 294° West 384 442 34,000  Level FlightAware
07:30AM 26.6710 51.1290 293° West 384 442 34,000  Level FlightAware
07:31AM 26.7040 51.0460 294° West 384 442 34,000  Level FlightAware
07:32AM 26.7320 50.9740 294° West 385 443 34,000  Level FlightAware
07:33AM 26.7640 50.8910 293° West 384 442 34,000  Level FlightAware
07:33AM 26.7950 50.8110 293° West 385 443 34,000  Level FlightAware
07:34AM 26.8310 50.7160 293° West 384 442 34,000  Level FlightAware
07:35AM 26.8610 50.6380 293° West 385 443 34,000  Level FlightAware
07:36AM 26.8860 50.5710 293° West 385 443 34,000  Level FlightAware
07:36AM 26.9140 50.4960 293° West 385 443 34,000  Level FlightAware
07:37AM 26.9370 50.4330 292° West 385 443 34,000  Level FlightAware
07:38AM 26.9600 50.3700 292° West 385 443 34,000  Level FlightAware
07:38AM 26.9880 50.2920 292° West 385 443 34,000  Level FlightAware
07:39AM 27.0110 50.2290 292° West 385 443 34,000  Level FlightAware
07:40AM 27.0330 50.1650 291° West 385 443 34,000  Level FlightAware
07:40AM 27.0560 50.1020 292° West 385 443 34,000  Level FlightAware
07:41AM 27.0840 50.0240 292° West 385 443 34,000  Level FlightAware
07:42AM 27.1070 49.9610 292° West 385 443 34,000  Level FlightAware
07:43AM 27.1300 49.8970 292° West 385 443 34,000  Level FlightAware
07:43AM 27.1530 49.8340 292° West 385 443 34,000  Level FlightAware
07:44AM 27.1750 49.7710 291° West 385 443 34,000  Level FlightAware
07:45AM 27.1980 49.7080 292° West 385 443 34,000  Level FlightAware
07:45AM 27.2260 49.6290 292° West 385 443 34,000  Level FlightAware
07:48AM 27.3942 49.4550 317° Northwest  Level Estimated
07:49AM 27.4762 49.3699 317° Northwest  Level Estimated
07:49AM 27.9170 49.4160 317° Northwest 426 490 34,000  Level FlightAware
07:50AM 27.9970 49.3530 325° Northwest 432 497 34,000  Level FlightAware
07:50AM 28.0590 49.3100 329° Northwest 435 501 34,000  Level FlightAware
07:51AM 28.1700 49.2330 329° Northwest 437 503 34,000  Level FlightAware
07:52AM 28.2200 49.1990 329° Northwest 438 504 34,000  Level FlightAware
07:53AM 28.2940 49.1470 328° Northwest 438 504 34,000  Level FlightAware
07:53AM 28.3400 49.1150 329° Northwest 438 504 34,000  Level FlightAware
07:53AM 28.3790 49.0870 328° Northwest 438 504 34,000  Level FlightAware
07:54AM 28.4620 49.0300 329° Northwest 438 504 34,000  Level FlightAware
07:55AM 28.5290 48.9820 328° Northwest 439 505 34,000  Level FlightAware
07:55AM 28.5840 48.9440 329° Northwest 438 504 34,000  Level FlightAware
07:56AM 28.6420 48.9030 328° Northwest 438 504 34,000  Level FlightAware
07:57AM 28.7320 48.8400 328° Northwest 437 503 34,000  Level FlightAware
07:57AM 28.8070 48.7880 329° Northwest 431 496 34,000  Level FlightAware
07:59AM 28.9310 48.7000 328° Northwest 424 488 34,000  Level FlightAware
08:00AM 29.0090 48.6450 328° Northwest 421 484 34,000  Level FlightAware
08:00AM 29.0590 48.6090 328° Northwest 419 482 34,000  Level FlightAware
08:01AM 29.1250 48.5620 328° Northwest 418 481 34,000  Level FlightAware
08:01AM 29.2060 48.5050 328° Northwest 418 481 34,000  Level FlightAware
08:02AM 29.2680 48.4600 328° Northwest 418 481 34,000  Level FlightAware
08:03AM 29.3220 48.4220 328° Northwest 417 480 34,000  Level FlightAware
08:03AM 29.3660 48.3900 328° Northwest 417 480 34,000  Level FlightAware
08:04AM 29.4480 48.3320 328° Northwest 420 483 34,000  Level FlightAware
08:04AM 29.4770 48.3110 328° Northwest 420 483 34,000  Level FlightAware
08:05AM 29.5300 48.2730 328° Northwest 420 483 34,000  Level FlightAware
08:06AM 29.6080 48.2170 328° Northwest 420 483 34,000  Level FlightAware
08:06AM 29.6940 48.1550 328° Northwest 422 486 34,000  Level FlightAware
08:07AM 29.7540 48.1100 327° Northwest 422 486 34,000  Level FlightAware
08:08AM 29.8270 48.0590 329° Northwest 422 486 34,000  Level FlightAware
08:09AM 29.8940 48.0110 328° Northwest 426 490 34,000  Level FlightAware
08:09AM 29.9550 47.9670 328° Northwest 425 489 34,000  Level FlightAware
08:10AM 30.0230 47.9120 325° Northwest 412 474 34,000  Level FlightAware
08:11AM 30.0840 47.8370 313° West 404 465 34,000  Level FlightAware
08:11AM 30.1280 47.7760 310° West 404 465 34,000  Level FlightAware
08:12AM 30.2100 47.6660 311° West 403 464 34,000  Level FlightAware
08:13AM 30.2510 47.6100 310° West 403 464 34,000  Level FlightAware
08:14AM 30.2920 47.5530 310° West 403 464 34,000  Level FlightAware
08:14AM 30.3320 47.4970 310° West 403 464 34,000  Level FlightAware
08:15AM 30.3830 47.4270 310° West 403 464 34,000  Level FlightAware
08:16AM 30.4240 47.3700 310° West 403 464 34,000  Level FlightAware
08:17AM 30.4650 47.3140 310° West 403 464 34,000  Level FlightAware
08:17AM 30.5050 47.2580 310° West 403 464 34,000  Level FlightAware
08:18AM 30.5460 47.2010 310° West 403 464 34,000  Level FlightAware
08:19AM 30.5970 47.1310 310° West 403 464 34,000  Level FlightAware
08:19AM 30.6380 47.0740 310° West 403 464 34,000  Level FlightAware
08:20AM 30.6790 47.0180 310° West 403 464 34,000  Level FlightAware
08:21AM 30.7190 46.9620 310° West 403 464 34,000  Level FlightAware
08:21AM 30.7600 46.9050 310° West 403 464 34,000  Level FlightAware
08:24AM 30.9284 46.7095 315° West  Level Estimated
08:25AM 31.0073 46.6177 315° West  Level Estimated
08:26AM 31.0861 46.5257 315° West  Level Estimated
08:27AM 31.1648 46.4335 315° West  Level Estimated
08:28AM 31.2434 46.3412 315° West  Level Estimated
08:29AM 31.3220 46.2488 315° West  Level Estimated
08:30AM 31.4005 46.1562 315° West  Level Estimated
08:31AM 31.4790 46.0634 315° West  Level Estimated
08:32AM 31.5574 45.9705 315° West  Level Estimated
08:33AM 31.6357 45.8774 315° West  Level Estimated
08:34AM 31.7139 45.7841 315° West  Level Estimated
08:35AM 31.7921 45.6907 315° West  Level Estimated
08:36AM 31.8703 45.5972 315° West  Level Estimated
08:37AM 31.9483 45.5034 314° West  Level Estimated
08:38AM 32.0263 45.4096 314° West  Level Estimated
08:39AM 32.1042 45.3155 314° West  Level Estimated
08:40AM 32.1820 45.2213 314° West  Level Estimated
08:41AM 32.2598 45.1270 314° West  Level Estimated
08:42AM 32.3375 45.0324 314° West  Level Estimated
08:43AM 32.4151 44.9378 314° West  Level Estimated
08:43AM 32.6990 45.0500 314° West 407 468 34,000  Level FlightAware
08:44AM 32.7650 45.0100 333° Northwest 406 467 34,000  Level FlightAware
08:44AM 32.8420 44.9620 332° Northwest 406 467 34,000  Level FlightAware
08:45AM 32.9130 44.9190 333° Northwest 408 470 34,000  Level FlightAware
08:46AM 32.9760 44.8810 333° Northwest 408 470 34,000  Level FlightAware
08:46AM 33.0430 44.8400 333° Northwest 408 470 34,000  Level FlightAware
08:47AM 33.1220 44.7920 333° Northwest 411 473 34,000  Level FlightAware
08:48AM 33.1900 44.7500 333° Northwest 415 478 34,000  Level FlightAware
08:49AM 33.2710 44.7130 339° North 430 495 34,000  Level FlightAware
08:49AM 33.3500 44.6840 343° North 432 497 34,000  Level FlightAware
08:50AM 33.4360 44.6530 343° North 433 498 34,000  Level FlightAware
08:51AM 33.5120 44.6250 343° North 433 498 34,000  Level FlightAware
08:51AM 33.5850 44.5920 339° North 430 495 34,000  Level FlightAware
08:52AM 33.6670 44.5510 337° Northwest 429 494 34,000  Level FlightAware
08:53AM 33.7420 44.5140 338° Northwest 433 498 34,000  Level FlightAware
08:53AM 33.8270 44.4720 338° Northwest 435 501 34,000  Level FlightAware
08:54AM 33.9020 44.4350 338° Northwest 435 501 34,000  Level FlightAware
08:55AM 33.9830 44.3950 338° Northwest 435 501 34,000  Level FlightAware
08:55AM 34.0440 44.3650 338° Northwest 434 499 34,000  Level FlightAware
08:56AM 34.1360 44.3200 338° Northwest 430 495 34,000  Level FlightAware
08:57AM 34.2360 44.2700 338° Northwest 429 494 34,000  Level FlightAware
08:58AM 34.3200 44.2280 338° Northwest 429 494 34,000  Level FlightAware
08:59AM 34.3920 44.1920 338° Northwest 426 490 34,000  Level FlightAware
08:59AM 34.4730 44.1510 337° Northwest 427 491 34,000  Level FlightAware
09:00AM 34.5460 44.1140 337° Northwest 424 488 34,000  Level FlightAware
09:01AM 34.6180 44.0760 337° Northwest 428 493 34,000  Level FlightAware
09:01AM 34.7030 44.0310 336° Northwest 432 497 34,000  Level FlightAware
09:02AM 34.7750 43.9940 337° Northwest 431 496 34,000  Level FlightAware
09:03AM 34.8570 43.9500 336° Northwest 434 499 34,000  Level FlightAware
09:03AM 34.9310 43.9110 337° Northwest 435 501 34,000  Level FlightAware
09:04AM 35.0060 43.8720 337° Northwest 436 502 34,000  Level FlightAware
09:05AM 35.0900 43.8270 336° Northwest 436 502 34,000  Level FlightAware
09:06AM 35.1640 43.7880 337° Northwest 435 501 34,000  Level FlightAware
09:06AM 35.2350 43.7500 336° Northwest 437 503 34,000  Level FlightAware
09:07AM 35.3220 43.7040 337° Northwest 440 506 34,000  Level FlightAware
09:08AM 35.4050 43.6600 337° Northwest 441 507 34,000  Level FlightAware
09:08AM 35.4800 43.6200 337° Northwest 444 511 34,000  Level FlightAware
09:09AM 35.5640 43.5750 336° Northwest 445 512 34,000  Level FlightAware
09:10AM 35.6420 43.5330 336° Northwest 445 512 34,000  Level FlightAware
09:10AM 35.7140 43.4940 336° Northwest 446 513 34,000  Level FlightAware
09:11AM 35.7900 43.4540 337° Northwest 450 518 34,000  Level FlightAware
09:12AM 35.8780 43.4060 336° Northwest 449 517 34,000  Level FlightAware
09:13AM 35.9650 43.3590 336° Northwest 445 512 34,000  Level FlightAware
09:13AM 36.0390 43.3190 336° Northwest 442 509 34,000  Level FlightAware
09:14AM 36.1150 43.2780 336° Northwest 443 510 34,000  Level FlightAware
09:15AM 36.1870 43.2380 336° Northwest 443 510 34,000  Level FlightAware
09:15AM 36.2720 43.1910 336° Northwest 442 509 34,000  Level FlightAware
09:16AM 36.3470 43.1500 336° Northwest 438 504 34,000  Level FlightAware
09:17AM 36.4310 43.1030 336° Northwest 439 505 34,000  Level FlightAware
09:17AM 36.5030 43.0640 336° Northwest 444 511 34,000  Level FlightAware
09:18AM 36.5780 43.0220 336° Northwest 440 506 34,000  Level FlightAware
09:19AM 36.6630 42.9740 336° Northwest 437 503 34,000  Level FlightAware
09:20AM 36.7480 42.9270 336° Northwest 436 502 34,000  Level FlightAware
09:20AM 36.8210 42.8870 336° Northwest 437 503 34,000  Level FlightAware
09:21AM 36.8930 42.8470 336° Northwest 436 502 34,000  Level FlightAware
09:22AM 36.9760 42.8010 336° Northwest 437 503 34,000  Level FlightAware
09:22AM 37.0510 42.7600 336° Northwest 439 505 34,000  Level FlightAware
09:23AM 37.1260 42.7180 336° Northwest 442 509 34,000  Level FlightAware
09:24AM 37.2110 42.6710 336° Northwest 446 513 34,000  Level FlightAware
09:24AM 37.2810 42.6130 327° Northwest 446 513 34,000 600 Level FlightAware
09:25AM 37.3480 42.5360 318° Northwest 449 517 34,900 1,200 Climbing FlightAware
09:26AM 37.4100 42.4640 317° Northwest 452 520 35,700 720 Climbing FlightAware
09:27AM 37.4790 42.3840 317° Northwest 449 517 36,000 180 Climbing FlightAware
09:27AM 37.5400 42.3130 317° Northwest 451 519 36,000  Level FlightAware
09:28AM 37.5990 42.2450 318° Northwest 452 520 36,000  Level FlightAware
09:29AM 37.6700 42.1620 317° Northwest 451 519 36,000  Level FlightAware
09:29AM 37.7300 42.0930 318° Northwest 452 520 36,000  Level FlightAware
09:30AM 37.7980 42.0130 317° Northwest 452 520 36,000  Level FlightAware
09:31AM 37.8580 41.9430 317° Northwest 452 520 36,000  Level FlightAware
09:31AM 37.9220 41.8640 316° Northwest 450 518 36,000  Level FlightAware
09:32AM 37.9930 41.7620 311° West 451 519 36,000  Level FlightAware
09:33AM 38.0400 41.6940 311° West 451 519 36,000  Level FlightAware
09:34AM 38.0980 41.6090 311° West 451 519 36,000  Level FlightAware
09:35AM 38.1440 41.5410 311° West 451 519 36,000  Level FlightAware
09:35AM 38.1910 41.4720 311° West 451 519 36,000  Level FlightAware
09:36AM 38.2380 41.4040 311° West 451 519 36,000  Level FlightAware
09:37AM 38.2840 41.3360 311° West 451 519 36,000  Level FlightAware
09:37AM 38.3310 41.2680 311° West 451 519 36,000  Level FlightAware
09:38AM 38.3890 41.1830 311° West 451 519 36,000  Level FlightAware
09:39AM 38.4350 41.1140 310° West 451 519 36,000  Level FlightAware
09:39AM 38.4820 41.0460 311° West 451 519 36,000  Level FlightAware
09:40AM 38.5290 40.9770 311° West 451 519 36,000  Level FlightAware
09:41AM 38.5750 40.9090 311° West 451 519 36,000  Level FlightAware
09:42AM 38.6330 40.8230 311° West 451 519 36,000  Level FlightAware
09:44AM 38.7650 40.5988 307° West  Level Estimated
09:45AM 38.8320 40.4845 307° West  Level Estimated
09:46AM 38.8988 40.3700 307° West  Level Estimated
09:47AM 38.9656 40.2552 307° West  Level Estimated
09:48AM 39.0322 40.1403 307° West  Level Estimated
09:49AM 39.0987 40.0251 307° West  Level Estimated
09:50AM 39.1651 39.9097 307° West  Level Estimated
09:51AM 39.2314 39.7941 307° West  Level Estimated
09:52AM 39.2975 39.6783 306° West  Level Estimated
09:53AM 39.3636 39.5622 306° West  Level Estimated
09:54AM 39.4295 39.4460 306° West  Level Estimated
09:55AM 39.4953 39.3295 306° West  Level Estimated
09:56AM 39.5611 39.2128 306° West  Level Estimated
09:57AM 39.6267 39.0959 306° West  Level Estimated
09:58AM 39.6921 38.9787 306° West  Level Estimated
09:59AM 39.7575 38.8613 306° West  Level Estimated
10:00AM 39.8227 38.7438 306° West  Level Estimated
10:01AM 39.8878 38.6259 306° West  Level Estimated
10:02AM 39.9528 38.5079 306° West  Level Estimated
10:03AM 40.0177 38.3896 306° West  Level Estimated
10:04AM 40.0825 38.2711 306° West  Level Estimated
10:05AM 40.1471 38.1524 305° West  Level Estimated
10:06AM 40.2116 38.0335 305° West  Level Estimated
10:07AM 40.2760 37.9143 305° West  Level Estimated
10:08AM 40.3403 37.7949 305° West  Level Estimated
10:09AM 40.4044 37.6753 305° West  Level Estimated
10:10AM 40.4684 37.5555 305° West  Level Estimated
10:11AM 40.5323 37.4354 305° West  Level Estimated
10:12AM 40.5961 37.3151 305° West  Level Estimated
10:13AM 40.6598 37.1945 305° West  Level Estimated
10:14AM 40.7233 37.0738 305° West  Level Estimated
10:15AM 40.7867 36.9528 305° West  Level Estimated
10:16AM 40.8500 36.8315 305° West  Level Estimated
10:17AM 40.9131 36.7101 305° West  Level Estimated
10:18AM 40.9761 36.5884 304° West  Level Estimated
10:19AM 41.0390 36.4665 304° West  Level Estimated
10:20AM 41.1018 36.3443 304° West  Level Estimated
10:21AM 41.1644 36.2219 304° West  Level Estimated
10:22AM 41.2269 36.0993 304° West  Level Estimated
10:23AM 41.2893 35.9764 304° West  Level Estimated
10:24AM 41.3515 35.8533 304° West  Level Estimated
10:25AM 41.4136 35.7300 304° West  Level Estimated
10:26AM 41.4756 35.6064 304° West  Level Estimated
10:27AM 41.5374 35.4826 304° West  Level Estimated
10:28AM 41.5992 35.3586 304° West  Level Estimated
10:29AM 41.6607 35.2343 304° West  Level Estimated
10:30AM 41.7222 35.1098 303° West  Level Estimated
10:30AM 42.6180 34.3010 303° West 468 539 36,000  Level FlightAware
10:31AM 41.7835 34.9851 303° West  Level Estimated
10:32AM 41.8447 34.8601 303° West  Level Estimated
10:32AM 42.8200 33.9620 309° West 474 545 36,000  Level FlightAware
10:35AM 42.9528 33.6628 301° West  Level Estimated
10:36AM 43.0103 33.5323 301° West  Level Estimated
10:37AM 43.0677 33.4015 301° West  Level Estimated
10:38AM 43.1249 33.2705 301° West  Level Estimated
10:39AM 43.1819 33.1393 301° West  Level Estimated
10:40AM 43.2388 33.0078 301° West  Level Estimated
10:41AM 43.2956 32.8761 301° West  Level Estimated
10:42AM 43.3522 32.7441 301° West  Level Estimated
10:43AM 43.4086 32.6119 300° West  Level Estimated
10:44AM 43.4649 32.4795 300° West  Level Estimated
10:45AM 43.5210 32.3468 300° West  Level Estimated
10:46AM 43.5770 32.2138 300° West  Level Estimated
10:47AM 43.6329 32.0806 300° West  Level Estimated
10:48AM 43.6885 31.9472 300° West  Level Estimated
10:48AM 43.7110 31.3960 300° West 483 556 36,000  Level FlightAware
10:49AM 43.7640 31.2350 295° West 482 555 36,000  Level FlightAware
10:49AM 43.8030 31.1180 295° West 482 555 36,000  Level FlightAware
10:50AM 43.8450 30.9910 295° West 482 555 36,000  Level FlightAware
10:51AM 43.8800 30.8850 295° West 483 556 36,000  Level FlightAware
10:52AM 43.9320 30.7250 294° West 481 554 36,000  Level FlightAware
10:53AM 43.9730 30.5990 294° West 481 554 36,000  Level FlightAware
10:53AM 44.0130 30.4760 294° West 481 554 36,000  Level FlightAware
10:54AM 44.0450 30.3780 294° West 481 554 36,000  Level FlightAware
10:55AM 44.0910 30.2350 294° West 478 550 36,000  Level FlightAware
10:56AM 44.1410 30.0780 294° West 479 551 36,000  Level FlightAware
10:56AM 44.1690 29.9890 294° West 480 552 36,000  Level FlightAware
10:57AM 44.2100 29.8600 294° West 478 550 36,000  Level FlightAware
10:58AM 44.2520 29.7240 293° West 478 550 36,000  Level FlightAware
10:59AM 44.2940 29.5900 294° West 477 549 36,000  Level FlightAware
10:59AM 44.3370 29.4520 294° West 478 550 36,000  Level FlightAware
11:00AM 44.3820 29.3080 294° West 477 549 36,000  Level FlightAware
11:01AM 44.4200 29.1860 294° West 477 549 36,000  Level FlightAware
11:02AM 44.4640 29.0420 293° West 474 545 36,000  Level FlightAware
11:03AM 44.5090 28.8920 293° West 477 549 36,000  Level FlightAware
11:03AM 44.5360 28.8030 293° West 478 550 36,000  Level FlightAware
11:04AM 44.5840 28.6460 293° West 475 547 36,000  Level FlightAware
11:05AM 44.6290 28.4960 293° West 476 548 36,000  Level FlightAware
11:06AM 44.6640 28.3770 293° West 475 547 36,000  Level FlightAware
11:06AM 44.6980 28.2640 293° West 474 545 36,000  Level FlightAware
11:07AM 44.7350 28.1380 292° West 470 541 36,000  Level FlightAware
11:08AM 44.7680 28.0260 293° West 469 540 36,000  Level FlightAware
11:08AM 44.8050 27.8990 292° West 469 540 36,000  Level FlightAware
11:09AM 44.8380 27.7880 293° West 468 539 36,000  Level FlightAware
11:10AM 44.8740 27.6600 292° West 470 541 36,000  Level FlightAware
11:11AM 44.9080 27.5460 293° West 467 537 36,000  Level FlightAware
11:11AM 44.9400 27.4330 292° West 465 535 36,000  Level FlightAware
11:12AM 44.9760 27.3080 292° West 463 533 36,000  Level FlightAware
11:12AM 45.0000 27.2240 292° West 462 532 36,000  Level FlightAware
11:13AM 45.0280 27.1220 291° West 461 531 36,000  Level FlightAware
11:14AM 45.0600 27.0100 292° West 461 531 36,000  Level FlightAware
11:15AM 45.0990 26.8710 292° West 459 528 36,000  Level FlightAware
11:15AM 45.1300 26.7600 292° West 460 529 36,000  Level FlightAware
11:16AM 45.1600 26.6530 292° West 460 529 36,000  Level FlightAware
11:17AM 45.1950 26.5250 291° West 461 531 36,000  Level FlightAware
11:17AM 45.2240 26.4220 292° West 460 529 36,000  Level FlightAware
11:18AM 45.2600 26.2910 291° West 461 531 36,000  Level FlightAware
11:19AM 45.2910 26.1780 291° West 460 529 36,000  Level FlightAware
11:19AM 45.3220 26.0620 291° West 460 529 36,000  Level FlightAware
11:20AM 45.3570 25.9310 291° West 458 527 36,000  Level FlightAware
11:21AM 45.3850 25.8300 292° West 458 527 36,000  Level FlightAware
11:21AM 45.4150 25.7170 291° West 457 526 36,000  Level FlightAware
11:22AM 45.4500 25.5840 291° West 457 526 36,000  Level FlightAware
11:23AM 45.4800 25.4730 291° West 458 527 36,000  Level FlightAware
11:24AM 45.5120 25.3510 291° West 459 528 36,000  Level FlightAware
11:24AM 45.5420 25.2360 290° West 458 527 36,000  Level FlightAware
11:25AM 45.5730 25.1160 290° West 458 527 36,000  Level FlightAware
11:26AM 45.6030 25.0020 291° West 458 527 36,000  Level FlightAware
11:27AM 45.6390 24.8610 290° West 458 527 36,000  Level FlightAware
11:27AM 45.6680 24.7480 290° West 456 525 36,000  Level FlightAware
11:28AM 45.7090 24.5860 290° West 456 525 36,000  Level FlightAware
11:29AM 45.7340 24.4890 290° West 457 526 36,000  Level FlightAware
11:30AM 45.7670 24.3580 290° West 456 525 36,000  Level FlightAware
11:30AM 45.7970 24.2410 290° West 455 524 36,000  Level FlightAware
11:31AM 45.8250 24.1280 290° West 455 524 36,000  Level FlightAware
11:32AM 45.8560 24.0040 290° West 457 526 36,000  Level FlightAware
11:32AM 45.8880 23.8720 289° West 458 527 36,000  Level FlightAware
11:33AM 45.9180 23.7500 290° West 458 527 36,000  Level FlightAware
11:34AM 45.9460 23.6360 289° West 456 525 36,000  Level FlightAware
11:35AM 45.9840 23.4820 290° West 456 525 36,000  Level FlightAware
11:35AM 46.0110 23.3670 289° West 454 522 36,000  Level FlightAware
11:36AM 46.0410 23.2440 289° West 454 522 36,000  Level FlightAware
11:37AM 46.0650 23.1420 289° West 456 525 36,000  Level FlightAware
11:37AM 46.0930 23.0270 289° West 458 527 36,000  Level FlightAware
11:38AM 46.1150 22.9330 289° West 458 527 36,000  Level FlightAware
11:39AM 46.1800 22.6560 289° West 458 527 36,000  Level FlightAware
11:40AM 46.2000 22.5710 289° West 459 528 36,000  Level FlightAware
11:41AM 46.2350 22.4190 288° West 459 528 36,000  Level FlightAware
11:41AM 46.2620 22.3030 289° West 460 529 36,000  Level FlightAware
11:42AM 46.2860 22.1970 288° West 460 529 36,000  Level FlightAware
11:43AM 46.3180 22.0570 288° West 460 529 36,000  Level FlightAware
11:44AM 46.3470 21.9270 288° West 458 527 36,000  Level FlightAware
11:44AM 46.3740 21.8090 288° West 457 526 36,000  Level FlightAware
11:45AM 46.4090 21.6490 288° West 456 525 36,000  Level FlightAware
11:46AM 46.4360 21.5310 288° West 457 526 36,000  Level FlightAware
11:47AM 46.4650 21.4000 288° West 457 526 36,000  Level FlightAware
11:47AM 46.4880 21.2970 288° West 459 528 36,000  Level FlightAware
11:48AM 46.5250 21.1530 291° West 456 525 36,000  Level FlightAware
11:49AM 46.5550 21.0390 291° West 460 529 36,000  Level FlightAware
11:49AM 46.5850 20.9230 291° West 461 531 36,000  Level FlightAware
11:50AM 46.6190 20.7930 291° West 462 532 36,000  Level FlightAware
11:51AM 46.6480 20.6760 290° West 462 532 36,000  Level FlightAware
11:51AM 46.6820 20.5450 291° West 463 533 36,000  Level FlightAware
11:52AM 46.7080 20.4410 290° West 464 534 36,000  Level FlightAware
11:53AM 46.7410 20.3100 290° West 465 535 36,000  Level FlightAware
11:54AM 46.7740 20.1790 290° West 466 536 36,000  Level FlightAware
11:54AM 46.8030 20.0620 290° West 466 536 36,000  Level FlightAware
11:55AM 46.8360 19.9300 290° West 465 535 36,000  Level FlightAware
11:56AM 46.8620 19.8250 290° West 468 539 36,000  Level FlightAware
11:56AM 46.8960 19.6840 289° West 465 535 36,000  Level FlightAware
11:57AM 46.9240 19.5710 290° West 466 536 36,000  Level FlightAware
11:58AM 46.9610 19.4180 290° West 470 541 36,000  Level FlightAware
11:58AM 46.9880 19.3070 290° West 471 542 36,000  Level FlightAware
11:59AM 47.0220 19.1640 289° West 472 543 36,000  Level FlightAware
12:00PM 47.0500 19.0480 290° West 469 540 36,000  Level FlightAware
12:01PM 47.0790 18.9270 289° West 469 540 36,000  Level FlightAware
12:01PM 47.1050 18.8160 289° West 469 540 36,000  Level FlightAware
12:02PM 47.1400 18.6680 289° West 469 540 36,000  Level FlightAware
12:03PM 47.1710 18.5330 289° West 469 540 36,000  Level FlightAware
12:03PM 47.1990 18.4120 289° West 471 542 36,000  Level FlightAware
12:04PM 47.2300 18.2780 289° West 472 543 36,000  Level FlightAware
12:05PM 47.2530 18.1770 289° West 475 547 36,000  Level FlightAware
12:06PM 47.3220 17.8710 289° West 475 547 36,000  Level FlightAware
12:07PM 47.3600 17.7010 288° West 477 549 36,000  Level FlightAware
12:09PM 47.4420 17.3350 288° West 481 554 36,000  Level FlightAware
12:10PM 47.4700 17.2050 288° West 482 555 36,000  Level FlightAware
12:11PM 47.5000 17.0680 288° West 483 556 36,000  Level FlightAware
12:11PM 47.5240 16.9550 287° West 482 555 36,000  Level FlightAware
12:12PM 47.5590 16.7950 288° West 483 556 36,000  Level FlightAware
12:13PM 47.5890 16.6710 290° West 483 556 36,000  Level FlightAware
12:13PM 47.6220 16.5470 292° West 485 558 36,000  Level FlightAware
12:14PM 47.6570 16.4120 291° West 484 557 36,000  Level FlightAware
12:15PM 47.6890 16.2870 291° West 484 557 36,000  Level FlightAware
12:16PM 47.7260 16.1440 291° West 486 559 36,000  Level FlightAware
12:16PM 47.7580 16.0200 291° West 487 560 36,000  Level FlightAware
12:17PM 47.7900 15.8960 291° West 487 560 36,000  Level FlightAware
12:18PM 47.8250 15.7590 291° West 487 560 36,000  Level FlightAware
12:18PM 47.8570 15.6320 291° West 488 562 36,000  Level FlightAware
12:19PM 47.8930 15.4940 291° West 488 562 36,000  Level FlightAware
12:20PM 47.9270 15.3690 292° West 488 562 36,000  Level FlightAware
12:20PM 47.9630 15.2290 291° West 489 563 36,000  Level FlightAware
12:21PM 47.9950 15.1060 291° West 489 563 36,000  Level FlightAware
12:22PM 48.0270 14.9830 291° West 489 563 36,000  Level FlightAware
12:23PM 48.0660 14.8300 291° West 489 563 36,000  Level FlightAware
12:23PM 48.0980 14.7050 291° West 491 565 36,000  Level FlightAware
12:24PM 48.1310 14.5770 291° West 491 565 36,000  Level FlightAware
12:25PM 48.1660 14.4390 291° West 491 565 36,000  Level FlightAware
12:25PM 48.1940 14.3270 291° West 491 565 36,000  Level FlightAware
12:28PM 48.3138 13.9867 298° West  Level Estimated
12:28PM 48.3360 13.7520 298° West 489 563 36,000  Level FlightAware
12:29PM 48.3670 13.6250 290° West 492 566 36,000  Level FlightAware
12:30PM 48.4040 13.4700 290° West 492 566 36,000  Level FlightAware
12:31PM 48.4640 13.3020 298° West 497 572 36,000  Level FlightAware
12:31PM 48.5190 13.2000 309° West 498 573 36,000  Level FlightAware
12:32PM 48.5860 13.0710 308° West 497 572 36,000  Level FlightAware
12:33PM 48.6390 12.9700 308° West 497 572 36,000  Level FlightAware
12:33PM 48.6800 12.8770 304° West 493 567 36,000  Level FlightAware
12:34PM 48.7090 12.7100 285° West 487 560 36,000  Level FlightAware
12:35PM 48.7220 12.5710 278° West 488 562 36,000  Level FlightAware
12:36PM 48.7350 12.4290 278° West 489 563 36,000  Level FlightAware
12:36PM 48.7480 12.2730 277° West 487 560 36,000  Level FlightAware
12:37PM 48.7610 12.1440 279° West 488 562 36,000 -240 Level FlightAware
12:38PM 48.7910 12.0220 291° West 500 575 35,700 -780 Descending FlightAware
12:39PM 48.8640 11.8530 303° West 493 567 34,800 -1,020 Descending FlightAware
12:39PM 48.9190 11.7300 304° West 484 557 34,000 -1,140 Descending FlightAware
12:40PM 48.9840 11.5830 304° West 474 545 33,100 -720 Descending FlightAware
12:41PM 49.0330 11.4700 304° West 479 551 33,000 -660 Descending FlightAware
12:41PM 49.0900 11.3380 303° West 496 571 32,200 -1,440 Descending FlightAware
12:42PM 49.1380 11.2290 304° West 485 558 31,000 -1,980 Descending FlightAware
12:43PM 49.1890 11.1100 303° West 475 547 29,600 -1,920 Descending FlightAware
12:44PM 49.2380 10.9950 303° West 465 535 28,300 -1,980 Descending FlightAware
12:44PM 49.2890 10.8770 304° West 448 516 26,800 -2,100 Descending FlightAware
12:45PM 49.3390 10.7660 305° West 444 511 25,400 -1,920 Descending FlightAware
12:46PM 49.3890 10.6930 316° Northwest 439 505 24,300 -1,980 Descending FlightAware
12:47PM 49.4900 10.5900 326° Northwest 432 497 22,300 -2,040 Descending FlightAware
12:48PM 49.5980 10.4550 321° Northwest 418 481 20,000 -1,800 Descending FlightAware
12:48PM 49.6510 10.3520 309° West 395 455 18,900 -1,500 Descending FlightAware
12:49PM 49.6940 10.2680 308° West 381 438 17,900 -1,560 Descending FlightAware
12:50PM 49.7270 10.2050 309° West 374 430 17,100 -1,560 Descending FlightAware
12:51PM 49.7840 10.0930 308° West 368 423 15,700 -1,560 Descending FlightAware
12:51PM 49.8280 10.0090 309° West 359 413 14,700 -1,500 Descending FlightAware
12:52PM 49.8730 9.9110 305° West 351 404 13,600 -1,020 Descending FlightAware
12:53PM 49.8820 9.8320 280° West 13,000 -660 Descending FlightAware
12:53PM 49.8800 9.7890 266° West 337 388 13,000 22,980 Level FlightAware
12:54PM 48.6560 12.9370 120° Southeast 497 572 36,000 17,220 Climbing FlightAware
12:54PM 48.7000 12.7920 295° West 491 565 36,000  Level FlightAware
12:55PM 48.7160 12.6380 279° West 489 563 36,000  Level FlightAware
12:56PM 48.7280 12.5060 278° West 488 562 36,000 -18,780 Level FlightAware
12:56PM 49.8690 9.3010 300° West 326 375 11,000 -23,100 Descending FlightAware
12:57PM 49.8790 9.2600 291° West 306 352 11,000  Level FlightAware
12:57PM 49.8890 9.2430 312° West 294 338 11,000  Level FlightAware
12:57PM 49.9090 9.2290 336° Northwest 288 331 11,000  Level FlightAware
12:58PM 49.9450 9.2350 North 266 306 11,000  Level FlightAware
12:58PM 49.9930 9.2500 11° North 265 305 11,000 -180 Level FlightAware
12:59PM 50.0320 9.2700 18° North 271 312 10,800 -720 Descending FlightAware
12:59PM 50.0490 9.2830 26° Northeast 272 313 10,500 -1,440 Descending FlightAware
01:00PM 50.0880 9.2670 345° North 253 291 9,600 -2,340 Descending FlightAware
01:00PM 50.1100 9.2190 306° West 276 318 8,000 -2,640 Descending FlightAware
01:00PM 50.1260 9.1810 303° West 273 314 7,200 -1,800 Descending FlightAware
01:01PM 50.1430 9.1160 292° West 264 304 6,200 -1,740 Descending FlightAware
01:01PM 50.1480 9.0690 279° West 271 312 5,500 -1,320 Descending FlightAware
01:02PM 50.1430 9.0240 260° West 254 292 5,100 -720 Descending FlightAware
01:02PM 50.1390 9.0080 249° West 245 282 5,100 -300 Level FlightAware
01:03PM 50.1280 8.9580 251° West 236 272 4,900 -420 Descending FlightAware
01:03PM 50.1160 8.9050 251° West 214 246 4,700 -720 Descending FlightAware
01:04PM 50.1070 8.8680 249° West 215 247 4,200 -1,200 Descending FlightAware
01:04PM 50.1020 8.8460 250° West 211 243 3,900 -1,200 Descending FlightAware
01:04PM 50.0920 8.8070 248° West 190 219 3,300 -1,140 Descending FlightAware
01:05PM 50.0850 8.7750 251° West 175 201 2,900 -960 Descending FlightAware
01:05PM 50.0790 8.7510 249° West 171 197 2,600 -900 Descending FlightAware
01:06PM 50.0690 8.7080 250° West 149 171 2,000 -840 Descending FlightAware
01:06PM 50.0670 8.6980 253° West 144 166 1,900 -900 Descending FlightAware
01:06PM 50.0610 8.6730 250° West 144 166 1,500 -900 Descending FlightAware
01:07PM 50.0540 8.6450 249° West 143 165 1,100 -780 Descending FlightAware
01:07PM 50.0490 8.6220 251° West 143 165 800 -720 Descending FlightAware
01:07PM 50.0470 8.6140 249° West 143 165 700 17,460 Descending FlightAware
01:08PM 49.9360 9.2320 105° East 275 316 11,000 9,360 Climbing FlightAware
01:08PM 50.0240 9.2620 12° North 274 315 10,900 -840 Descending FlightAware
01:09PM 50.0640 9.2850 20° North 270 311 10,200 -3,000 Descending FlightAware
01:09PM 50.0970 9.2510 327° Northwest 263 303 8,900 -4,500 Descending FlightAware
01:09PM 50.1190 9.1970 302° West 276 318 7,600 -5,220 Descending FlightAware
01:10PM 50.1410 9.1290 297° West 267 307 6,300 -4,020 Descending FlightAware
01:10PM 50.1470 9.0790 281° West 270 311 5,600 -2,400 Descending FlightAware
01:10PM 50.1410 9.0160 262° West 247 284 5,100 -1,200 Descending FlightAware
01:11PM 50.1240 8.9390 251° West 226 260 4,800 -1,560 Descending FlightAware
01:11PM 50.0990 8.8340 250° West 207 238 3,700 -2,220 Descending FlightAware
01:11PM 50.0830 8.7660 250° West 177 204 2,800 -1,980 Descending FlightAware
01:12PM 50.0670 8.7010 249° West 145 167 1,900 -1,680 Descending FlightAware
01:12PM 50.0570 8.6580 250° West 145 167 1,300 -720 Descending FlightAware
01:13PM 50.0520 8.6350 251° West 145 167 1,300  Level FlightAware
01:15PM 50.0264 8.5431 247° West  Level Estimated